Thunder radar more information blitzortung!


Rain radar more information rain snow radar


altri nostri siti meteo:

PomeziameteoStazione ufficiale di Pomezia

MeteopomeziaSito sulle condizioni meteo



Nessuna attenzione particolare richiesta.    Non ci sono allerte meteo

Report METAR

   
LIMP - Parma
Dati ricevuti: 20-03-2019 20:50
Sereno  
Sereno  
   Vento: SE 9.3 km/h
Vento: SE 9.3 km/h
Temperatura: 9°C
Temperatura Vento: 8°C
P.to Rugiada: -5°C
Umidita: 37%
Barometro: 1031 hPa
Visibilita: oltre 10 km
dettagli cloud: Sereno
LIMP 201950Z 14005KT CAVOK 09/M05 Q1031
LIPE - Bologna
Dati ricevuti: 20-03-2019 20:50
Sereno  
Sereno  
   Vento: NO 1.9 km/h
Vento: NO 1.9 km/h
Temperatura: 5°C
P.to Rugiada: -3°C
Umidita: 57%
Barometro: 1031 hPa
Visibilita: oltre 10 km
dettagli cloud: Sereno
LIPE 201950Z 31001KT CAVOK 05/M03 Q1031
LIPO - Brescia/Montichi
Dati ricevuti: 20-03-2019 20:50
Sereno  
Sereno  
   Vento: SE 11.1 km/h
Vento: SE 11.1 km/h
Temperatura: 9°C
Temperatura Vento: 7°C
P.to Rugiada: -2°C
Umidita: 46%
Barometro: 1031 hPa
Visibilita: oltre 10 km
dettagli cloud: Sereno
LIPO 201950Z 11006KT CAVOK 09/M02 Q1031
LIPF - Ferrara
Dati ricevuti: 20-03-2019 18:55
DATI Obsoleti
Sereno  
Sereno  
   Vento: Variabile calma
Vento: Variabile calma
Temperatura: 10°C
P.to Rugiada: -4°C
Umidita: 37%
Barometro: 1030 hPa
Visibilita: oltre 10 km
dettagli cloud: Sereno
LIPF 201755Z /////KT CAVOK 10/M04 Q1030
LIPL - Ghedi
Dati ricevuti: 20-03-2019 20:55
Poche nuvole  
Poche nuvole  
   Vento: Oriente 9.3 km/h
Vento: Oriente 9.3 km/h
Temperatura: 9°C
Temperatura Vento: 8°C
P.to Rugiada: 0°C
Umidita: 54%
Barometro: 1031 hPa
Nuvole: Poche nuvole
Visibilita: oltre 10 km
dettagli cloud: Poche nuvole 7000 ft
LIPL 201955Z 09005KT 9999 FEW070 09/00 Q1031 RMK FEW VIS MIN 9999 WIND THR31 09004KT WIND THR13 08004KT BLU
LIVC - Monte Cimone
Dati ricevuti: 20-03-2019 15:55
DATI Obsoleti
Freezing, Nebbia  
Freezing, Nebbia  
   Vento: NE 64.8 km/h
Vento: NE 64.8 km/h
Temperatura: -6°C
Temperatura Vento: -17°C
P.to Rugiada: -6°C
Umidita: 100%
Barometro: 1021 hPa
Visibilita: 0 km
dettagli cloud: Coperto
LIVC 201455Z 04035KT 0000 FZFG VV/// M06/M06 Q1021 RMK MON INVIS VAL INVIS VIS MIN 0000
LIMS - Piacenza
Dati ricevuti: 20-03-2019 18:55
DATI Obsoleti
Sereno  
Sereno  
   Vento: SE 11.1 km/h
Vento: SE 11.1 km/h
Temperatura: 10°C
Temperatura Vento: 8°C
P.to Rugiada: -6°C
Umidita: 32%
Barometro: 1028 hPa
Visibilita: oltre 10 km
dettagli cloud: Sereno
LIMS 201755Z 14006KT CAVOK 10/M06 Q1028
LIMT - Passo della Cisa
Dati ricevuti: 13-04-2018 12:55
DATI Obsoleti
Nebbia  
Nebbia  
   Vento: S 14.8 km/h
Vento: S 14.8 km/h
Temperatura: 6°C
Temperatura Vento: 3°C
P.to Rugiada: 4°C
Umidita: 87%
Barometro: 1013 hPa
Visibilita: 0 km
dettagli cloud: Coperto
LIMT 131055Z 20008KT 0000 FG VV/// 06/04 Q1013 RMK MON INVIS VAL INVIS VIS MIN 0000
LIPU - Padova
Dati ricevuti: 20-03-2019 08:00
DATI Obsoleti
Sereno  
Sereno  
   Vento: NE 9.3 km/h
Vento: NE 9.3 km/h
Temperatura: 8°C
Temperatura Vento: 7°C
P.to Rugiada: 0°C
Umidita: 57%
Barometro: 1030 hPa
Visibilita: oltre 10 km
dettagli cloud: Sereno
LIPU 200700Z 03005KT 360V060 CAVOK 08/00 Q1030

Script sviluppato da  Saratoga-weather.org Adattato per il modello da  Weerstation Leuven

Strumentazione usata:

Stazione meteo
Davis VP2

Programma gestore dati meteo
WVIEW

Server per i dati meteo
Pc-WDS5

Davis VP2

WVIEW

Pc-WDS5